CPX101 Details

Departure: Los Angeles International Airport (KLAX)
Arrival: Miami International Airport (KMIA) at N/A
Route: DOTSS2 CNERY BLH J65 KOFFA J169 TFD J50 ELP J2 JCT J86 LEV Q102 BAGGS SSCOT5
Notes:


Current Weather Information
KLAX 251053Z 23003KT 10SM FEW010 20/18 A2996 RMK AO2 SLP143 T02000178 VISNO RWY24 $
KMIA 251053Z 00000KT 10SM FEW025 SCT250 27/24 A2991 RMK AO2 SLP129 CB DSNT SW T02670244